Letterkenny, Ireland
Current Conditions -  °F | °C
As of 8:20 PM on Tuesday 21 Oct 2014 (Local Time) from EGAE Reporting Station
Rain Showers Rain Showers  
Wind Chill: 44°   Ceiling: 3800
Heat Index: 48°   Visibility: 6mi
Dew Point: 43°   Wind: 9mph
Humidity: 82%   Direction: 250°WSW
Pressure: 30.09"   Gusts: NA
Location:  54.94°N, 7.74°W
Report Text: EGAE 212020Z 25008KT 230V290 9999 -SHRA SCT027 BKN038 09/06 Q1019
Loading
Personal Weather Stations






























Interactive Weather Map
Tropical Storm Tracking
New forecast layout! Learn more

10-Day Weather Forecast

Advertisements
Track Severe Weather on mobile